createdAt,value
2022-12-18T00:01:21.836Z,102647.63
2022-12-18T00:03:51.978Z,102663.63
2022-12-18T00:06:20.284Z,102662.34
2022-12-18T00:08:48.510Z,102660.75
2022-12-18T00:11:18.197Z,102668.06
2022-12-18T00:13:46.885Z,102668.91
2022-12-18T00:16:19.339Z,102680.56
2022-12-18T00:18:47.063Z,102682.63
2022-12-18T00:21:16.653Z,102679.00
2022-12-18T00:23:45.407Z,102679.25
2022-12-18T00:26:17.300Z,102674.34
2022-12-18T00:28:45.718Z,102669.84
2022-12-18T00:31:16.076Z,102669.03
2022-12-18T00:33:44.559Z,102666.00
2022-12-18T00:36:14.563Z,102666.72
2022-12-18T00:38:43.907Z,102664.28
2022-12-18T00:41:13.213Z,102649.00
2022-12-18T00:43:41.076Z,102653.72
2022-12-18T00:46:08.963Z,102652.25
2022-12-18T00:48:37.341Z,102656.88
2022-12-18T00:51:04.971Z,102657.47
2022-12-18T00:53:32.571Z,102656.63
2022-12-18T00:56:01.605Z,102652.00
2022-12-18T00:58:29.315Z,102646.31
2022-12-18T01:00:57.001Z,102645.22
2022-12-18T01:03:24.630Z,102640.59
2022-12-18T01:05:52.299Z,102628.06
2022-12-18T01:08:19.923Z,102636.34
2022-12-18T01:10:47.634Z,102634.41
2022-12-18T01:13:16.688Z,102646.78
2022-12-18T01:15:50.270Z,102648.22
2022-12-18T01:18:18.140Z,102663.56
2022-12-18T01:20:45.950Z,102659.53
2022-12-18T01:23:13.600Z,102662.47
2022-12-18T01:25:41.249Z,102668.75
2022-12-18T01:28:08.933Z,102674.75
2022-12-18T01:30:37.946Z,102683.97
2022-12-18T01:33:06.217Z,102687.47
2022-12-18T01:35:33.942Z,102679.47
2022-12-18T01:38:01.587Z,102678.00
2022-12-18T01:40:29.246Z,102683.50
2022-12-18T01:42:56.925Z,102687.72
2022-12-18T01:45:28.210Z,102682.50
2022-12-18T01:47:59.945Z,102687.84
2022-12-18T01:50:32.860Z,102681.06
2022-12-18T01:53:04.334Z,102681.91
2022-12-18T01:55:38.101Z,102681.91
2022-12-18T01:58:06.159Z,102677.53
2022-12-18T02:00:34.254Z,102682.03
2022-12-18T02:03:03.450Z,102676.56
2022-12-18T02:05:40.986Z,102678.59
2022-12-18T02:08:15.088Z,102675.69
2022-12-18T02:10:50.286Z,102688.59
2022-12-18T02:13:22.920Z,102690.41
2022-12-18T02:16:00.443Z,102696.22
2022-12-18T02:18:33.956Z,102690.47
2022-12-18T02:21:07.092Z,102692.41
2022-12-18T02:23:49.362Z,102697.66
2022-12-18T02:26:28.316Z,102690.72
2022-12-18T02:29:01.707Z,102691.81
2022-12-18T02:31:32.586Z,102694.84
2022-12-18T02:34:04.330Z,102703.22
2022-12-18T02:36:34.314Z,102699.94
2022-12-18T02:39:03.688Z,102701.72
2022-12-18T02:41:33.502Z,102704.31
2022-12-18T02:44:08.401Z,102695.94
2022-12-18T02:46:38.842Z,102706.09
2022-12-18T02:49:23.709Z,102719.00
2022-12-18T02:51:55.965Z,102721.78
2022-12-18T02:54:44.623Z,102717.16
2022-12-18T02:57:20.511Z,102727.94
2022-12-18T02:59:59.036Z,102723.88
2022-12-18T03:02:34.530Z,102731.00
2022-12-18T03:05:09.761Z,102737.09
2022-12-18T03:07:41.298Z,102731.88
2022-12-18T03:10:13.686Z,102729.81
2022-12-18T03:12:46.900Z,102724.06
2022-12-18T03:15:19.535Z,102720.31
2022-12-18T03:17:53.682Z,102724.78
2022-12-18T03:20:23.940Z,102727.44
2022-12-18T03:22:55.136Z,102721.53
2022-12-18T03:25:24.382Z,102725.28
2022-12-18T03:27:58.669Z,102729.41
2022-12-18T03:30:28.446Z,102739.09
2022-12-18T03:33:02.233Z,102727.13
2022-12-18T03:35:34.427Z,102732.09
2022-12-18T03:38:02.080Z,102732.47
2022-12-18T03:40:35.746Z,102721.94
2022-12-18T03:43:10.954Z,102726.16
2022-12-18T03:45:43.393Z,102713.53
2022-12-18T03:48:18.784Z,102727.69
2022-12-18T03:50:51.670Z,102722.97
2022-12-18T03:53:29.483Z,102728.19
2022-12-18T03:55:58.865Z,102727.59
2022-12-18T03:58:30.660Z,102736.78
2022-12-18T04:01:02.290Z,102740.16
2022-12-18T04:03:31.944Z,102742.41
2022-12-18T04:06:02.838Z,102742.84
2022-12-18T04:08:31.138Z,102742.97
2022-12-18T04:10:58.886Z,102736.59
2022-12-18T04:13:31.183Z,102735.41
2022-12-18T04:15:58.907Z,102732.25
2022-12-18T04:18:26.742Z,102735.13
2022-12-18T04:20:55.033Z,102739.91
2022-12-18T04:23:23.497Z,102735.53
2022-12-18T04:25:51.555Z,102739.19
2022-12-18T04:28:19.317Z,102740.41
2022-12-18T04:30:51.140Z,102754.63
2022-12-18T04:33:18.959Z,102748.56
2022-12-18T04:35:47.081Z,102760.53
2022-12-18T04:38:15.175Z,102762.06
2022-12-18T04:40:42.846Z,102753.19
2022-12-18T04:43:11.179Z,102750.09
2022-12-18T04:45:39.478Z,102753.81
2022-12-18T04:48:09.749Z,102763.19
2022-12-18T04:50:38.172Z,102758.16
2022-12-18T04:53:05.834Z,102762.75
2022-12-18T04:55:33.543Z,102758.09
2022-12-18T04:58:01.199Z,102752.84
2022-12-18T05:00:28.887Z,102760.81
2022-12-18T05:02:56.956Z,102753.06
2022-12-18T05:05:26.080Z,102769.16
2022-12-18T05:07:53.751Z,102769.56
2022-12-18T05:10:21.462Z,102767.34
2022-12-18T05:13:01.381Z,102765.19
2022-12-18T05:15:30.518Z,102756.72
2022-12-18T05:17:58.539Z,102766.13
2022-12-18T05:20:28.692Z,102774.63
2022-12-18T05:22:57.784Z,102775.81
2022-12-18T05:25:25.911Z,102785.63
2022-12-18T05:27:53.549Z,102793.94
2022-12-18T05:30:21.187Z,102797.63
2022-12-18T05:32:48.814Z,102796.94
2022-12-18T05:35:16.456Z,102800.56
2022-12-18T05:37:45.457Z,102796.25
2022-12-18T05:40:14.269Z,102799.91
2022-12-18T05:42:41.857Z,102804.78
2022-12-18T05:45:10.219Z,102810.91
2022-12-18T05:47:37.916Z,102813.50
2022-12-18T05:50:06.628Z,102811.56
2022-12-18T05:52:34.307Z,102807.41
2022-12-18T05:55:03.330Z,102805.66
2022-12-18T05:57:30.990Z,102808.97
2022-12-18T05:59:58.646Z,102813.34
2022-12-18T06:02:26.447Z,102812.19
2022-12-18T06:04:54.213Z,102818.13
2022-12-18T06:07:21.838Z,102820.28
2022-12-18T06:09:49.522Z,102816.69
2022-12-18T06:12:18.506Z,102821.59
2022-12-18T06:14:46.238Z,102826.94
2022-12-18T06:17:13.895Z,102821.53
2022-12-18T06:19:41.530Z,102823.09
2022-12-18T06:22:09.156Z,102825.09
2022-12-18T06:24:36.837Z,102831.41
2022-12-18T06:27:04.487Z,102832.44
2022-12-18T06:29:33.446Z,102835.09
2022-12-18T06:32:01.152Z,102838.50
2022-12-18T06:34:28.847Z,102839.53
2022-12-18T06:36:56.444Z,102852.22
2022-12-18T06:39:24.124Z,102854.59
2022-12-18T06:41:51.816Z,102856.41
2022-12-18T06:44:19.681Z,102853.56
2022-12-18T06:46:48.750Z,102861.59
2022-12-18T06:49:16.916Z,102867.09
2022-12-18T06:51:44.824Z,102865.84
2022-12-18T06:54:13.182Z,102869.03
2022-12-18T06:56:40.909Z,102871.25
2022-12-18T06:59:08.578Z,102877.97
2022-12-18T07:01:36.343Z,102886.81
2022-12-18T07:04:05.407Z,102885.63
2022-12-18T07:06:33.125Z,102889.59
2022-12-18T07:09:00.765Z,102889.41
2022-12-18T07:11:28.426Z,102890.41
2022-12-18T07:13:56.381Z,102871.41
2022-12-18T07:16:25.853Z,102870.50
2022-12-18T07:18:53.779Z,102876.84
2022-12-18T07:21:23.979Z,102869.06
2022-12-18T07:23:51.476Z,102873.25
2022-12-18T07:26:20.837Z,102881.78
2022-12-18T07:28:49.118Z,102890.28
2022-12-18T07:31:19.404Z,102896.22
2022-12-18T07:33:47.908Z,102889.94
2022-12-18T07:36:16.346Z,102893.50
2022-12-18T07:38:45.415Z,102885.03
2022-12-18T07:41:15.114Z,102877.13
2022-12-18T07:43:43.987Z,102884.22
2022-12-18T07:46:14.654Z,102891.06
2022-12-18T07:48:42.534Z,102883.25
2022-12-18T07:51:15.263Z,102884.53
2022-12-18T07:53:43.456Z,102889.50
2022-12-18T07:56:31.205Z,102894.75
2022-12-18T07:58:59.800Z,102888.63
2022-12-18T08:01:27.924Z,102889.03
2022-12-18T08:03:55.851Z,102886.47
2022-12-18T08:06:24.303Z,102897.56
2022-12-18T08:08:53.381Z,102891.03
2022-12-18T08:11:23.065Z,102895.25
2022-12-18T08:13:50.883Z,102892.63
2022-12-18T08:16:19.691Z,102894.78
2022-12-18T08:18:48.526Z,102895.81
2022-12-18T08:21:19.054Z,102895.72
2022-12-18T08:23:48.733Z,102894.75
2022-12-18T08:26:17.242Z,102890.78
2022-12-18T08:28:46.595Z,102898.94
2022-12-18T08:31:14.288Z,102902.44
2022-12-18T08:33:43.602Z,102904.44
2022-12-18T08:36:12.287Z,102900.47
2022-12-18T08:38:39.996Z,102895.16
2022-12-18T08:41:09.073Z,102899.94
2022-12-18T08:43:54.049Z,102897.28
2022-12-18T08:46:25.754Z,102908.19
2022-12-18T08:48:54.404Z,102907.63
2022-12-18T08:51:22.246Z,102914.69
2022-12-18T08:53:50.331Z,102912.50
2022-12-18T08:56:18.240Z,102914.41
2022-12-18T08:58:46.100Z,102909.84
2022-12-18T09:01:14.675Z,102907.69
2022-12-18T09:03:44.267Z,102917.13
2022-12-18T09:06:16.533Z,102936.34
2022-12-18T09:08:44.632Z,102930.38
2022-12-18T09:11:18.248Z,102928.44
2022-12-18T09:13:45.859Z,102922.13
2022-12-18T09:16:13.662Z,102928.09
2022-12-18T09:18:41.873Z,102937.00
2022-12-18T09:21:13.288Z,102927.81
2022-12-18T09:23:41.144Z,102930.59
2022-12-18T09:26:08.868Z,102931.50
2022-12-18T09:28:36.696Z,102945.16
2022-12-18T09:31:08.397Z,102941.78
2022-12-18T09:33:36.600Z,102948.34
2022-12-18T09:36:07.997Z,102948.97
2022-12-18T09:38:38.123Z,102941.56
2022-12-18T09:41:15.479Z,102939.28
2022-12-18T09:43:48.014Z,102944.66
2022-12-18T09:46:20.838Z,102934.66
2022-12-18T09:48:52.436Z,102925.06
2022-12-18T09:51:25.226Z,102921.53
2022-12-18T09:53:57.637Z,102912.31
2022-12-18T09:56:30.347Z,102902.09
2022-12-18T09:59:01.382Z,102896.50
2022-12-18T10:01:41.471Z,102893.72
2022-12-18T10:04:11.962Z,102894.69
2022-12-18T10:06:46.742Z,102888.97
2022-12-18T10:09:22.787Z,102878.78
2022-12-18T10:11:58.965Z,102871.25
2022-12-18T10:14:36.677Z,102863.75
2022-12-18T10:17:16.709Z,102863.34
2022-12-18T10:19:51.216Z,102858.38
2022-12-18T10:22:31.031Z,102864.84
2022-12-18T10:25:06.582Z,102870.78
2022-12-18T10:27:34.549Z,102864.34
2022-12-18T10:30:09.906Z,102862.78
2022-12-18T10:32:37.554Z,102866.78
2022-12-18T10:35:07.105Z,102869.09
2022-12-18T10:37:34.797Z,102855.59
2022-12-18T10:40:19.903Z,102861.31
2022-12-18T10:43:06.050Z,102861.66
2022-12-18T10:45:33.967Z,102860.22
2022-12-18T10:48:01.652Z,102845.72
2022-12-18T10:51:08.762Z,102846.00
2022-12-18T10:53:22.665Z,102842.81
2022-12-18T10:55:53.927Z,102834.03
2022-12-18T10:58:26.973Z,102842.34
2022-12-18T11:01:08.120Z,102837.59
2022-12-18T11:03:37.692Z,102836.72
2022-12-18T11:06:08.588Z,102821.53
2022-12-18T11:08:36.859Z,102827.13
2022-12-18T11:11:17.050Z,102830.53
2022-12-18T11:13:53.162Z,102828.59
2022-12-18T11:16:21.434Z,102827.97
2022-12-18T11:18:49.247Z,102822.00
2022-12-18T11:21:17.112Z,102820.66
2022-12-18T11:23:49.489Z,102820.94
2022-12-18T11:26:18.816Z,102811.41
2022-12-18T11:28:49.012Z,102816.63
2022-12-18T11:31:21.122Z,102821.16
2022-12-18T11:34:26.923Z,102822.84
2022-12-18T11:36:47.272Z,102830.03
2022-12-18T11:39:18.720Z,102838.91
2022-12-18T11:42:13.156Z,102838.56
2022-12-18T11:44:47.814Z,102835.06
2022-12-18T11:47:26.794Z,102840.38
2022-12-18T11:49:57.384Z,102837.59
2022-12-18T11:52:28.612Z,102839.03
2022-12-18T11:55:00.861Z,102843.94
2022-12-18T11:57:39.837Z,102841.97
2022-12-18T12:00:15.842Z,102846.00
2022-12-18T12:03:15.946Z,102850.38
2022-12-18T12:05:56.291Z,102845.47
2022-12-18T12:08:32.467Z,102845.75
2022-12-18T12:11:11.932Z,102844.41
2022-12-18T12:13:49.960Z,102851.56
2022-12-18T12:16:27.819Z,102867.53
2022-12-18T12:19:09.140Z,102859.63
2022-12-18T12:21:41.503Z,102867.41
2022-12-18T12:24:28.514Z,102872.00
2022-12-18T12:27:08.446Z,102868.25
2022-12-18T12:29:52.771Z,102869.69
2022-12-18T12:32:33.677Z,102868.09
2022-12-18T12:35:15.307Z,102871.66
2022-12-18T12:37:55.592Z,102872.75
2022-12-18T12:43:23.342Z,102868.72
2022-12-18T12:45:55.926Z,102882.13
2022-12-18T12:48:42.174Z,102884.66
2022-12-18T12:51:15.915Z,102890.25
2022-12-18T12:53:45.011Z,102881.25
2022-12-18T12:56:16.878Z,102886.00
2022-12-18T12:58:54.560Z,102878.56
2022-12-18T13:01:35.907Z,102868.69
2022-12-18T13:04:12.872Z,102846.41
2022-12-18T13:06:47.988Z,102833.97
2022-12-18T13:09:15.859Z,102832.38
2022-12-18T13:12:02.924Z,102814.59
2022-12-18T13:14:33.453Z,102823.28
2022-12-18T13:17:19.475Z,102825.69
2022-12-18T13:19:51.816Z,102833.03
2022-12-18T13:22:24.777Z,102833.88
2022-12-18T13:24:53.420Z,102831.94
2022-12-18T13:27:59.063Z,102842.31
2022-12-18T13:31:00.260Z,102843.63
2022-12-18T13:34:16.658Z,102841.56
2022-12-18T13:36:34.408Z,102835.31
2022-12-18T13:39:32.700Z,102838.91
2022-12-18T13:42:57.297Z,102841.69
2022-12-18T13:45:44.995Z,102846.25
2022-12-18T13:48:26.459Z,102841.75
2022-12-18T13:51:05.462Z,102826.41
2022-12-18T13:53:39.165Z,102818.63
2022-12-18T13:56:07.880Z,102819.06
2022-12-18T13:58:36.277Z,102814.34
2022-12-18T14:01:05.653Z,102814.50
2022-12-18T14:03:33.657Z,102808.06
2022-12-18T14:06:07.383Z,102809.16
2022-12-18T14:08:40.554Z,102796.22
2022-12-18T14:11:09.318Z,102795.59
2022-12-18T14:13:44.084Z,102802.06
2022-12-18T14:16:16.170Z,102798.53
2022-12-18T14:18:47.022Z,102800.88
2022-12-18T14:21:25.731Z,102792.31
2022-12-18T14:24:05.927Z,102797.84
2022-12-18T14:26:34.148Z,102800.13
2022-12-18T14:29:03.709Z,102804.44
2022-12-18T14:31:33.296Z,102782.16
2022-12-18T14:34:00.965Z,102775.41
2022-12-18T14:36:31.078Z,102768.25
2022-12-18T14:39:00.329Z,102771.19
2022-12-18T14:41:29.415Z,102766.03
2022-12-18T14:43:57.212Z,102753.00
2022-12-18T14:46:31.915Z,102751.31
2022-12-18T14:48:59.756Z,102744.97
2022-12-18T14:51:33.348Z,102735.56
2022-12-18T14:54:02.707Z,102734.78
2022-12-18T14:56:32.833Z,102740.31
2022-12-18T14:59:01.407Z,102731.56
2022-12-18T15:01:31.737Z,102726.09
2022-12-18T15:04:00.811Z,102727.97
2022-12-18T15:06:35.843Z,102731.56
2022-12-18T15:09:06.428Z,102743.63
2022-12-18T15:11:47.375Z,102748.53
2022-12-18T15:14:36.798Z,102755.97
2022-12-18T15:17:07.056Z,102773.50
2022-12-18T15:19:36.975Z,102777.38
2022-12-18T15:22:06.795Z,102786.38
2022-12-18T15:24:35.248Z,102791.47
2022-12-18T15:27:03.270Z,102775.31
2022-12-18T15:29:30.996Z,102783.88
2022-12-18T15:32:03.942Z,102776.19
2022-12-18T15:34:31.715Z,102773.34
2022-12-18T15:36:59.450Z,102773.00
2022-12-18T15:39:28.473Z,102777.38
2022-12-18T15:42:13.957Z,102778.00
2022-12-18T15:44:41.619Z,102783.97
2022-12-18T15:47:14.396Z,102787.25
2022-12-18T15:49:42.087Z,102784.50
2022-12-18T15:52:15.244Z,102794.44
2022-12-18T15:55:01.505Z,102791.03
2022-12-18T15:57:29.151Z,102782.75
2022-12-18T15:59:59.284Z,102786.41
2022-12-18T16:02:28.915Z,102791.84
2022-12-18T16:04:56.769Z,102780.31
2022-12-18T16:07:28.112Z,102772.53
2022-12-18T16:10:02.376Z,102768.34
2022-12-18T16:12:30.473Z,102774.69
2022-12-18T16:14:58.239Z,102781.41
2022-12-18T16:17:25.894Z,102770.69
2022-12-18T16:19:53.555Z,102760.59
2022-12-18T16:22:23.654Z,102743.38
2022-12-18T16:24:52.059Z,102741.59
2022-12-18T16:27:21.812Z,102742.84
2022-12-18T16:29:49.542Z,102737.09
2022-12-18T16:32:19.696Z,102738.34
2022-12-18T16:34:47.983Z,102739.16
2022-12-18T16:37:17.623Z,102741.38
2022-12-18T16:39:45.600Z,102751.47
2022-12-18T16:42:17.037Z,102746.72
2022-12-18T16:44:47.266Z,102743.63
2022-12-18T16:47:15.572Z,102742.81
2022-12-18T16:49:45.175Z,102741.47
2022-12-18T16:52:12.971Z,102747.09
2022-12-18T16:54:40.663Z,102736.13
2022-12-18T16:57:08.360Z,102736.91
2022-12-18T16:59:36.044Z,102723.66
2022-12-18T17:02:13.193Z,102734.03
2022-12-18T17:04:40.975Z,102743.56
2022-12-18T17:07:08.964Z,102729.31
2022-12-18T17:09:36.951Z,102740.78
2022-12-18T17:12:05.010Z,102735.44
2022-12-18T17:14:33.781Z,102742.03
2022-12-18T17:19:51.720Z,102731.19
2022-12-18T17:22:19.719Z,102727.63
2022-12-18T17:24:48.008Z,102737.72
2022-12-18T17:27:15.816Z,102739.50
2022-12-18T17:29:47.785Z,102746.44
2022-12-18T17:32:16.346Z,102741.19
2022-12-18T17:34:44.164Z,102734.75
2022-12-18T17:37:13.329Z,102721.63
2022-12-18T17:39:41.953Z,102731.47
2022-12-18T17:42:11.480Z,102740.94
2022-12-18T17:44:43.440Z,102744.03
2022-12-18T17:47:12.334Z,102735.84
2022-12-18T17:49:40.139Z,102738.16
2022-12-18T17:52:08.020Z,102753.03
2022-12-18T17:54:39.542Z,102751.44
2022-12-18T17:57:07.340Z,102742.69
2022-12-18T17:59:35.000Z,102735.84
2022-12-18T18:02:02.856Z,102729.66
2022-12-18T18:04:30.725Z,102722.34
2022-12-18T18:06:58.349Z,102722.59
2022-12-18T18:09:26.054Z,102713.00
2022-12-18T18:12:12.812Z,102713.25
2022-12-18T18:14:40.643Z,102714.22
2022-12-18T18:17:08.385Z,102703.25
2022-12-18T18:19:35.982Z,102698.63
2022-12-18T18:22:03.815Z,102695.50
2022-12-18T18:24:32.388Z,102685.88
2022-12-18T18:27:01.347Z,102675.44
2022-12-18T18:29:31.281Z,102673.34
2022-12-18T18:31:59.533Z,102678.47
2022-12-18T18:34:28.925Z,102680.66
2022-12-18T18:36:59.586Z,102674.34
2022-12-18T18:39:27.926Z,102680.56
2022-12-18T18:41:55.915Z,102681.41
2022-12-18T18:44:25.976Z,102673.13
2022-12-18T18:46:55.135Z,102669.63
2022-12-18T18:49:24.192Z,102660.88
2022-12-18T18:51:52.079Z,102662.94
2022-12-18T18:54:20.824Z,102651.97
2022-12-18T18:59:39.687Z,102640.69
2022-12-18T19:02:08.366Z,102645.06
2022-12-18T19:04:36.517Z,102643.59
2022-12-18T19:07:11.276Z,102626.78
2022-12-18T19:09:38.907Z,102630.44
2022-12-18T19:12:24.337Z,102634.84
2022-12-18T19:14:55.259Z,102630.72
2022-12-18T19:17:28.059Z,102633.28
2022-12-18T19:19:57.478Z,102622.97
2022-12-18T19:22:25.132Z,102625.38
2022-12-18T19:24:52.793Z,102616.88
2022-12-18T19:27:20.424Z,102609.84
2022-12-18T19:29:50.509Z,102612.97
2022-12-18T19:32:19.543Z,102611.75
2022-12-18T19:34:47.266Z,102604.44
2022-12-18T19:37:15.658Z,102598.38
2022-12-18T19:39:43.332Z,102609.31
2022-12-18T19:42:10.925Z,102606.28
2022-12-18T19:44:38.808Z,102610.19
2022-12-18T19:47:06.487Z,102599.09
2022-12-18T19:49:35.546Z,102610.31
2022-12-18T19:52:03.249Z,102614.31
2022-12-18T19:54:31.284Z,102613.50
2022-12-18T19:56:58.981Z,102616.63
2022-12-18T19:59:27.229Z,102613.84
2022-12-18T20:01:55.517Z,102604.59
2022-12-18T20:04:23.596Z,102599.41
2022-12-18T20:06:54.705Z,102602.78
2022-12-18T20:09:22.742Z,102605.22
2022-12-18T20:11:50.450Z,102599.59
2022-12-18T20:14:22.598Z,102603.41
2022-12-18T20:16:52.108Z,102589.16
2022-12-18T20:19:20.242Z,102578.56
2022-12-18T20:21:48.455Z,102573.88
2022-12-18T20:24:17.449Z,102586.41
2022-12-18T20:26:45.157Z,102574.72
2022-12-18T20:29:12.997Z,102571.16
2022-12-18T20:31:41.199Z,102562.22
2022-12-18T20:34:09.080Z,102567.56
2022-12-18T20:36:37.656Z,102565.38
2022-12-18T20:39:08.759Z,102566.94
2022-12-18T20:41:39.152Z,102568.28
2022-12-18T20:44:22.388Z,102560.38
2022-12-18T20:46:52.586Z,102563.41
2022-12-18T20:49:20.224Z,102572.19
2022-12-18T20:51:51.013Z,102588.09
2022-12-18T20:54:21.847Z,102573.41
2022-12-18T20:56:51.387Z,102565.16
2022-12-18T20:59:19.607Z,102555.38
2022-12-18T21:01:48.580Z,102556.09
2022-12-18T21:04:18.211Z,102543.69
2022-12-18T21:06:51.362Z,102541.63
2022-12-18T21:09:21.257Z,102542.72
2022-12-18T21:12:08.077Z,102563.09
2022-12-18T21:14:38.014Z,102554.47
2022-12-18T21:17:06.268Z,102548.03
2022-12-18T21:19:33.950Z,102558.84
2022-12-18T21:22:01.781Z,102549.72
2022-12-18T21:24:32.019Z,102542.66
2022-12-18T21:27:05.069Z,102543.66
2022-12-18T21:29:33.120Z,102543.06
2022-12-18T21:32:00.932Z,102530.66
2022-12-18T21:34:30.673Z,102531.00
2022-12-18T21:37:00.540Z,102520.13
2022-12-18T21:39:29.717Z,102517.84
2022-12-18T21:42:15.990Z,102514.22
2022-12-18T21:44:48.339Z,102516.63
2022-12-18T21:47:22.686Z,102512.63
2022-12-18T21:49:52.465Z,102528.81
2022-12-18T21:52:21.755Z,102527.00
2022-12-18T21:55:01.783Z,102515.56
2022-12-18T21:57:34.163Z,102524.50
2022-12-18T22:00:03.273Z,102531.00
2022-12-18T22:02:31.776Z,102536.56
2022-12-18T22:04:59.820Z,102531.44
2022-12-18T22:07:29.111Z,102528.03
2022-12-18T22:09:56.761Z,102529.66
2022-12-18T22:12:43.812Z,102530.28
2022-12-18T22:15:18.658Z,102537.09
2022-12-18T22:17:50.174Z,102531.63
2022-12-18T22:20:18.378Z,102517.66
2022-12-18T22:22:48.084Z,102518.63
2022-12-18T22:25:15.960Z,102502.66
2022-12-18T22:27:43.635Z,102509.81
2022-12-18T22:30:14.399Z,102498.53
2022-12-18T22:32:42.018Z,102491.63
2022-12-18T22:35:15.537Z,102496.41
2022-12-18T22:37:43.576Z,102490.19
2022-12-18T22:40:23.707Z,102478.13
2022-12-18T22:42:51.727Z,102469.81
2022-12-18T22:45:24.716Z,102466.88
2022-12-18T22:47:52.376Z,102461.72
2022-12-18T22:50:20.288Z,102457.50
2022-12-18T22:52:47.912Z,102454.94
2022-12-18T22:55:15.602Z,102455.66
2022-12-18T22:57:48.611Z,102436.66
2022-12-18T23:00:17.592Z,102438.22
2022-12-18T23:02:55.778Z,102439.03
2022-12-18T23:05:38.782Z,102428.19
2022-12-18T23:08:06.397Z,102414.53
2022-12-18T23:10:34.063Z,102408.47
2022-12-18T23:13:01.752Z,102408.34
2022-12-18T23:15:29.394Z,102404.81
2022-12-18T23:17:59.575Z,102395.50
2022-12-18T23:20:27.587Z,102399.16
2022-12-18T23:22:55.241Z,102391.84
2022-12-18T23:25:23.004Z,102390.72
2022-12-18T23:27:50.611Z,102397.91
2022-12-18T23:30:18.335Z,102387.34
2022-12-18T23:32:46.023Z,102385.97
2022-12-18T23:35:15.613Z,102379.63
2022-12-18T23:37:58.667Z,102378.38
2022-12-18T23:40:27.302Z,102382.16
2022-12-18T23:42:55.445Z,102370.50
2022-12-18T23:45:23.143Z,102366.84
2022-12-18T23:47:51.105Z,102360.50
2022-12-18T23:50:25.458Z,102349.97
2022-12-18T23:53:04.624Z,102343.75
2022-12-18T23:55:34.465Z,102330.13
2022-12-18T23:58:02.147Z,102334.19
